Time;durP1;ratioP1;P1;durP2;ratioP2;P2;SDS_P1;SDS_P2;PMS_P1;PMS_P2;Temp;Humidity;BMP_temperature;BMP_pressure;BME280_temperature;BME280_humidity;BME280_pressure;Samples;Min_cycle;Max_cycle;Signal;HPM_P1;HPM_P2
2022/10/26 00:09:31;;;;;;;7.13;4.10;;;;;;;22.00;61.68;100776.94;21064130;27;20044;-73
2022/10/26 00:19:34;;;;;;;8.82;4.40;;;;;;;22.01;61.37;100783.88;21053010;28;20091;-73
2022/10/26 00:29:34;;;;;;;6.72;4.05;;;;;;;21.99;61.13;100780.53;21059911;28;20074;-73
2022/10/26 00:39:36;;;;;;;10.23;4.15;;;;;;;21.97;61.36;100779.81;21061237;28;20083;-72
2022/10/26 00:49:37;;;;;;;6.97;3.75;;;;;;;21.96;61.19;100774.63;21073994;27;20086;-73
2022/10/26 00:59:38;;;;;;;8.45;4.05;;;;;;;21.93;61.06;100766.97;21071265;27;20894;-72
2022/10/26 01:09:38;;;;;;;7.68;3.95;;;;;;;21.89;61.04;100774.25;21076893;27;20051;-73
2022/10/26 01:20:06;;;;;;;6.40;3.75;;;;;;;21.91;61.05;100767.09;21069967;27;20375;-73
2022/10/26 01:30:18;;;;;;;6.72;3.78;;;;;;;21.87;60.92;100768.25;21085440;27;20067;-73
2022/10/26 01:40:33;;;;;;;5.10;3.50;;;;;;;21.88;60.82;100760.22;21075462;27;20042;-73
2022/10/26 01:50:34;;;;;;;9.25;3.70;;;;;;;21.85;60.97;100754.34;21075141;27;20103;-73
2022/10/26 02:00:40;;;;;;;6.22;3.53;;;;;;;21.81;61.05;100752.91;21066503;27;20108;-74
2022/10/26 02:10:40;;;;;;;5.57;3.50;;;;;;;21.79;61.02;100760.06;21063649;27;20075;-73
2022/10/26 02:20:48;;;;;;;6.10;3.47;;;;;;;21.75;60.89;100749.75;21061943;27;20040;-73
2022/10/26 02:30:53;;;;;;;5.70;3.35;;;;;;;21.78;60.75;100753.13;21066001;27;20139;-73
2022/10/26 02:40:55;;;;;;;6.18;3.80;;;;;;;21.74;60.75;100755.97;21067013;27;20052;-73
2022/10/26 02:51:01;;;;;;;5.72;3.20;;;;;;;21.72;60.87;100759.69;21068225;27;20409;-74
2022/10/26 03:01:02;;;;;;;4.68;3.45;;;;;;;21.70;60.72;100775.63;21066047;27;20032;-73
2022/10/26 03:11:02;;;;;;;5.35;3.50;;;;;;;21.68;60.49;100780.16;21060748;27;20047;-73
2022/10/26 03:21:05;;;;;;;5.40;3.40;;;;;;;21.67;60.69;100789.00;21068315;27;20032;-74
2022/10/26 03:31:05;;;;;;;5.03;3.50;;;;;;;21.66;60.73;100787.34;21057234;27;20122;-74
2022/10/26 03:41:06;;;;;;;4.63;3.00;;;;;;;21.64;60.92;100791.03;21058179;27;20039;-74
2022/10/26 03:51:07;;;;;;;4.90;3.25;;;;;;;21.66;60.63;100803.16;21062512;27;20035;-72
2022/10/26 04:01:07;;;;;;;5.35;3.17;;;;;;;21.70;60.50;100812.53;21052195;27;20283;-71
2022/10/26 04:11:07;;;;;;;5.03;3.03;;;;;;;;;;21051163;27;20113;-74
2022/10/26 04:21:09;;;;;;;4.97;3.05;;;;;;;21.77;61.60;100817.34;21068445;27;20393;-74
2022/10/26 04:31:09;;;;;;;3.85;2.88;;;;;;;21.75;61.41;100818.28;21052324;28;20043;-76
2022/10/26 04:41:09;;;;;;;9.90;4.60;;;;;;;21.79;62.18;100805.72;21062095;27;20390;-74
2022/10/26 04:51:10;;;;;;;8.02;4.38;;;;;;;21.82;61.46;100825.75;21061186;28;20130;-77
2022/10/26 05:01:11;;;;;;;17.10;11.55;;;;;;;21.81;61.84;100821.44;21064774;27;20028;-77
2022/10/26 05:11:12;;;;;;;21.70;11.43;;;;;;;21.66;58.11;100820.75;21049930;27;20048;-75
2022/10/26 05:21:18;;;;;;;17.20;9.60;;;;;;;21.63;59.26;100824.47;21049419;27;20530;-77
2022/10/26 05:31:19;;;;;;;20.45;9.20;;;;;;;21.67;60.52;100838.25;21096609;27;20046;-76
2022/10/26 05:41:20;;;;;;;21.70;8.85;;;;;;;21.61;58.25;100844.81;21099608;27;20032;-79
2022/10/26 05:51:21;;;;;;;16.25;8.02;;;;;;;21.64;59.45;100844.59;21095222;27;20055;-79
2022/10/26 06:01:49;;;;;;;14.13;7.78;;;;;;;21.63;59.93;100857.88;21095881;27;20043;-80
2022/10/26 06:11:50;;;;;;;14.07;7.82;;;;;;;21.58;60.34;100866.09;21070567;27;20033;-77
2022/10/26 06:22:05;;;;;;;15.50;7.57;;;;;;;21.59;60.38;100868.66;21074004;27;20043;-77
2022/10/26 06:32:10;;;;;;;12.68;7.05;;;;;;;21.61;60.05;100880.88;21092284;27;20044;-77
2022/10/26 06:42:11;;;;;;;13.52;7.15;;;;;;;21.59;60.23;100880.97;21086559;27;20070;-77
2022/10/26 06:52:44;;;;;;;11.45;7.22;;;;;;;21.59;60.38;100895.00;21083035;27;20028;-76
2022/10/26 07:02:44;;;;;;;11.93;6.80;;;;;;;21.57;60.40;100899.53;21087964;27;20156;-76
2022/10/26 07:12:45;;;;;;;10.75;6.75;;;;;;;21.56;59.96;100902.25;21088355;27;20036;-76
2022/10/26 07:22:55;;;;;;;8.55;5.72;;;;;;;21.56;60.33;100900.47;21081569;27;20376;-78
2022/10/26 07:33:03;;;;;;;12.15;6.60;;;;;;;21.56;60.33;100907.50;21092315;27;20079;-76
2022/10/26 07:43:09;;;;;;;9.02;5.85;;;;;;;21.55;60.26;100909.28;21078171;27;20801;-77
2022/10/26 07:53:09;;;;;;;9.35;6.13;;;;;;;21.56;60.25;100916.28;21082306;27;20043;-77
2022/10/26 08:03:10;;;;;;;9.25;5.82;;;;;;;21.57;60.09;100906.59;21076987;28;20099;-77
2022/10/26 08:13:11;;;;;;;10.38;5.63;;;;;;;21.57;60.00;100896.88;21074586;28;20040;-77
2022/10/26 08:23:11;;;;;;;7.85;5.38;;;;;;;21.58;60.03;100898.56;21089615;28;20973;-76
2022/10/26 08:33:12;;;;;;;6.78;5.18;;;;;;;21.57;60.25;100911.88;21077018;28;20134;-77
2022/10/26 08:43:28;;;;;;;7.50;4.85;;;;;;;21.59;59.96;100918.72;21088571;27;20042;-76
2022/10/26 08:53:36;;;;;;;8.27;4.88;;;;;;;21.63;59.60;100915.84;21071029;27;20039;-76
2022/10/26 09:03:40;;;;;;;6.85;4.82;;;;;;;21.67;59.63;100918.16;21077779;27;20050;-76
2022/10/26 09:13:40;;;;;;;7.65;4.88;;;;;;;21.70;59.53;100932.91;21102837;27;20043;-76
2022/10/26 09:24:03;;;;;;;7.13;4.97;;;;;;;21.74;59.47;100937.84;21096982;27;20056;-77
2022/10/26 09:34:05;;;;;;;7.00;3.97;;;;;;;21.81;59.40;100953.25;21096798;27;20803;-77
2022/10/26 09:44:26;;;;;;;7.18;4.47;;;;;;;21.85;59.29;100955.56;21095660;27;20032;-77
2022/10/26 09:54:26;;;;;;;6.05;4.05;;;;;;;21.93;59.10;100952.34;21096723;27;20980;-77
2022/10/26 10:04:30;;;;;;;6.28;4.25;;;;;;;21.97;58.99;100956.47;21100889;27;20054;-77
2022/10/26 10:14:36;;;;;;;5.95;4.20;;;;;;;22.04;58.99;100962.13;21097032;27;20062;-77
2022/10/26 10:24:40;;;;;;;4.05;3.63;;;;;;;22.07;59.02;100965.41;21093299;27;20058;-77
2022/10/26 10:34:41;;;;;;;4.93;3.65;;;;;;;22.05;58.93;100963.81;21091770;27;20105;-77
2022/10/26 10:44:43;;;;;;;5.13;3.85;;;;;;;22.02;58.94;100956.13;21094959;27;20048;-78
2022/10/26 10:54:48;;;;;;;7.07;3.90;;;;;;;22.02;58.94;100945.56;21095184;27;20040;-77
2022/10/26 11:05:00;;;;;;;5.50;3.70;;;;;;;22.06;58.66;100949.69;21089838;27;20043;-77
2022/10/26 11:15:06;;;;;;;4.80;3.70;;;;;;;22.03;58.84;100942.84;21092531;27;20105;-77
2022/10/26 11:25:25;;;;;;;4.95;3.58;;;;;;;22.01;58.51;100939.47;21082327;27;20262;-77
2022/10/26 11:35:31;;;;;;;3.97;3.45;;;;;;;22.01;58.77;100928.09;21093752;27;20044;-77
2022/10/26 11:45:37;;;;;;;4.78;3.78;;;;;;;22.06;58.42;100925.97;21084497;27;20083;-77
2022/10/26 11:55:39;;;;;;;6.80;3.70;;;;;;;22.10;58.70;100916.84;21079523;27;20066;-78
2022/10/26 12:05:40;;;;;;;5.13;3.93;;;;;;;22.09;58.44;100911.69;21088477;27;20047;-77
2022/10/26 12:15:49;;;;;;;5.80;3.97;;;;;;;22.05;58.37;100911.91;21088505;27;20050;-77
2022/10/26 12:25:50;;;;;;;6.20;3.63;;;;;;;22.05;58.49;100905.81;21077317;27;20044;-77
2022/10/26 12:35:50;;;;;;;10.18;4.50;;;;;;;22.08;58.86;100908.19;21092648;28;20040;-77
2022/10/26 12:46:12;;;;;;;13.57;4.40;;;;;;;22.16;58.90;100900.59;21086033;27;20074;-76
2022/10/26 12:56:18;;;;;;;8.70;4.15;;;;;;;22.17;58.93;100904.06;21093198;27;20047;-78
2022/10/26 13:06:40;;;;;;;9.43;4.00;;;;;;;22.12;58.76;100900.91;21100024;27;20047;-77
2022/10/26 13:16:44;;;;;;;7.10;3.80;;;;;;;22.13;58.79;100908.72;21116668;27;20533;-78
2022/10/26 13:27:08;;;;;;;12.02;4.25;;;;;;;22.13;59.05;100910.50;21112657;27;20061;-78
2022/10/26 13:37:22;;;;;;;7.72;4.13;;;;;;;22.07;58.97;100906.53;21118332;27;20088;-79
2022/10/26 13:47:35;;;;;;;8.07;4.03;;;;;;;22.04;58.53;100914.66;21109531;27;20048;-80
2022/10/26 13:57:55;;;;;;;6.57;3.90;;;;;;;21.99;58.86;100917.63;21111989;27;20035;-79
2022/10/26 14:07:58;;;;;;;5.55;3.63;;;;;;;21.95;58.80;100912.69;21107925;27;20037;-80
2022/10/26 14:18:00;;;;;;;6.47;3.97;;;;;;;21.90;58.94;100913.03;21113244;27;20100;-79
2022/10/26 14:28:03;;;;;;;5.07;3.60;;;;;;;21.89;59.08;100914.00;21111727;27;20040;-80
2022/10/26 14:38:34;;;;;;;8.55;3.63;;;;;;;21.87;58.65;100915.88;21105487;27;20044;-80
2022/10/26 14:48:34;;;;;;;5.60;3.75;;;;;;;21.85;58.93;100912.50;21104468;27;20062;-80
2022/10/26 14:58:36;;;;;;;5.40;3.60;;;;;;;21.84;59.23;100921.41;21110739;27;20040;-80
2022/10/26 15:08:41;;;;;;;6.18;4.20;;;;;;;21.81;58.91;100911.06;21109838;27;20079;-80
2022/10/26 15:18:42;;;;;;;4.85;3.80;;;;;;;21.80;59.06;100922.56;21103735;27;20498;-79
2022/10/26 15:28:45;;;;;;;;;;;;;;;21.82;59.07;100934.66;21106338;27;20044;-81
2022/10/26 15:38:47;;;;;;;9.30;3.65;;;;;;;21.81;59.24;100934.78;21099735;27;19961;-80
2022/10/26 15:48:56;;;;;;;12.00;4.07;;;;;;;21.83;59.50;100948.72;21073884;27;20040;-73
2022/10/26 15:58:57;;;;;;;8.43;3.80;;;;;;;21.85;59.73;100954.69;21050693;27;20045;-73
2022/10/26 16:09:00;;;;;;;7.38;3.72;;;;;;;21.84;59.85;100961.78;21049432;28;20523;-73
2022/10/26 16:19:01;;;;;;;9.57;4.40;;;;;;;21.88;60.70;100963.22;21058312;28;20044;-75
2022/10/26 16:29:01;;;;;;;12.82;5.70;;;;;;;21.92;61.23;100969.13;21057656;28;20120;-74
2022/10/26 16:39:02;;;;;;;13.43;5.88;;;;;;;21.96;61.46;100978.53;21062522;27;24608;-75
2022/10/26 16:49:02;;;;;;;14.02;6.07;;;;;;;21.97;61.65;100989.91;21054512;27;20040;-75
2022/10/26 16:59:03;;;;;;;11.80;5.72;;;;;;;22.00;61.42;100994.97;21054722;27;20390;-74
2022/10/26 17:09:03;;;;;;;15.10;6.03;;;;;;;22.03;62.86;101006.13;21091765;27;20040;-74
2022/10/26 17:19:03;;;;;;;18.17;7.72;;;;;;;22.08;64.45;100997.88;21087041;27;20066;-76
2022/10/26 17:29:04;;;;;;;16.70;8.15;;;;;;;22.13;65.62;101011.59;21064642;27;20044;-78
2022/10/26 17:39:05;;;;;;;19.67;8.52;;;;;;;22.14;65.31;101023.84;21046539;27;20059;-74
2022/10/26 17:49:06;;;;;;;13.07;7.13;;;;;;;22.12;65.06;101022.22;21066227;27;20054;-72
2022/10/26 17:59:11;;;;;;;13.30;6.95;;;;;;;22.14;64.51;101029.13;21067171;27;20043;-75
2022/10/26 18:09:11;;;;;;;15.27;7.20;;;;;;;22.12;63.99;101044.19;21073393;27;20035;-74
2022/10/26 18:19:11;;;;;;;11.55;6.70;;;;;;;22.12;63.68;101052.09;21071865;27;20508;-77
2022/10/26 18:29:12;;;;;;;10.20;5.95;;;;;;;22.13;63.71;101050.31;21073044;27;20052;-73
2022/10/26 18:39:12;;;;;;;12.32;5.47;;;;;;;22.11;63.54;101057.50;21065265;27;20042;-73
2022/10/26 18:49:13;;;;;;;12.90;6.10;;;;;;;22.13;63.63;101066.97;21062544;27;20569;-74
2022/10/26 18:59:13;;;;;;;10.93;5.95;;;;;;;22.14;63.48;101065.19;21067299;27;20979;-75
2022/10/26 19:09:17;;;;;;;20.55;5.88;;;;;;;22.15;63.39;101077.41;21091838;27;20040;-73
2022/10/26 19:19:19;;;;;;;12.00;5.78;;;;;;;22.14;63.14;101097.69;21072237;27;20081;-75
2022/10/26 19:29:19;;;;;;;16.17;6.00;;;;;;;22.12;62.89;101118.03;21084028;27;20047;-74
2022/10/26 19:39:21;;;;;;;8.13;4.97;;;;;;;22.11;62.67;101131.34;21082818;27;20032;-74
2022/10/26 19:49:22;;;;;;;9.20;5.07;;;;;;;22.11;62.77;101144.53;21066486;27;20043;-75
2022/10/26 19:59:22;;;;;;;12.20;6.80;;;;;;;22.09;62.05;101157.81;21069019;27;20092;-77
2022/10/26 20:09:22;;;;;;;10.63;6.40;;;;;;;22.03;62.39;101163.50;21092046;27;20027;-76
2022/10/26 20:19:23;;;;;;;9.13;5.85;;;;;;;21.99;62.32;101172.59;21087559;27;20069;-76
2022/10/26 20:29:24;;;;;;;11.13;6.35;;;;;;;22.00;62.82;101174.28;21087704;28;20405;-76
2022/10/26 20:39:26;;;;;;;9.57;6.07;;;;;;;22.02;63.40;101178.50;21090154;27;20040;-76
2022/10/26 20:49:27;;;;;;;9.97;6.10;;;;;;;22.04;62.95;101183.66;21085818;27;20050;-76
2022/10/26 20:59:34;;;;;;;11.10;5.30;;;;;;;22.02;62.78;101181.13;21091071;27;20044;-73
2022/10/26 21:09:34;;;;;;;8.27;5.45;;;;;;;22.01;63.05;101190.00;21079064;27;20082;-75
2022/10/26 21:19:35;;;;;;;8.45;5.20;;;;;;;21.98;62.95;101189.34;21094658;27;20031;-77
2022/10/26 21:29:35;;;;;;;6.68;4.85;;;;;;;21.98;63.00;101189.34;21093487;27;20135;-76
2022/10/26 21:39:36;;;;;;;9.25;5.18;;;;;;;21.95;63.06;101200.97;21093703;27;20040;-76
2022/10/26 21:49:36;;;;;;;7.50;5.47;;;;;;;21.97;62.71;101203.47;21080722;27;20055;-76
2022/10/26 21:59:38;;;;;;;7.82;4.60;;;;;;;21.95;63.21;101203.59;21091562;27;20401;-73
2022/10/26 22:09:38;;;;;;;7.95;5.13;;;;;;;21.94;62.82;101217.72;21084454;27;20536;-74
2022/10/26 22:19:40;;;;;;;7.35;4.78;;;;;;;21.90;63.13;101206.53;21053783;27;20047;-75
2022/10/26 22:29:42;;;;;;;7.32;5.18;;;;;;;21.90;62.81;101213.63;21065628;27;20047;-75
2022/10/26 22:39:43;;;;;;;8.10;4.35;;;;;;;21.90;62.80;101230.28;21071018;27;20474;-74
2022/10/26 22:49:44;;;;;;;6.28;4.78;;;;;;;21.90;62.41;101238.19;21074134;27;20037;-75
2022/10/26 22:59:44;;;;;;;6.65;4.57;;;;;;;21.87;62.37;101225.22;21073408;27;20036;-75
2022/10/26 23:09:46;;;;;;;6.63;4.60;;;;;;;21.88;62.23;101247.16;21067760;27;20058;-76
2022/10/26 23:19:47;;;;;;;5.47;4.10;;;;;;;21.88;62.33;101247.16;21075148;27;20044;-75
2022/10/26 23:29:47;;;;;;;5.75;4.20;;;;;;;21.86;62.11;101239.34;21065118;27;20044;-75
2022/10/26 23:39:48;;;;;;;7.28;4.32;;;;;;;21.87;62.33;101248.09;21061596;27;20044;-75
2022/10/26 23:49:48;;;;;;;7.03;4.18;;;;;;;21.82;62.06;101245.75;21068484;27;20044;-76
2022/10/26 23:59:49;;;;;;;6.70;4.10;;;;;;;21.79;62.09;101245.97;21071073;27;20116;-75
